Time;durP1;ratioP1;P1;durP2;ratioP2;P2;SDS_P1;SDS_P2;PMS_P1;PMS_P2;Temp;Humidity;BMP_temperature;BMP_pressure;BME280_temperature;BME280_humidity;BME280_pressure;Samples;Min_cycle;Max_cycle;Signal;HPM_P1;HPM_P2
2021/03/26 00:02:01;;;;;;;34.57;22.47;;;9.40;99.90;;;;;;5023623;28;20510;-89
2021/03/26 00:04:29;;;;;;;38.40;24.17;;;9.30;99.90;;;;;;5024527;28;20842;-87
2021/03/26 00:06:54;;;;;;;39.17;23.90;;;9.20;99.90;;;;;;5025614;28;20465;-89
2021/03/26 00:09:23;;;;;;;34.97;23.63;;;9.20;99.90;;;;;;5026268;28;21025;-87
2021/03/26 00:11:50;;;;;;;39.83;23.87;;;9.20;99.90;;;;;;5028753;28;20197;-89
2021/03/26 00:14:17;;;;;;;39.93;25.43;;;9.10;99.90;;;;;;5029149;28;20556;-89
2021/03/26 00:16:45;;;;;;;39.03;23.20;;;9.00;99.90;;;;;;5023998;28;20455;-88
2021/03/26 00:19:11;;;;;;;40.00;24.50;;;8.90;99.90;;;;;;5025899;28;20891;-86
2021/03/26 00:21:37;;;;;;;38.33;24.60;;;8.90;99.90;;;;;;5027677;28;20778;-91
2021/03/26 00:24:04;;;;;;;38.97;24.20;;;8.80;99.90;;;;;;5040743;28;20460;-89
2021/03/26 00:26:30;;;;;;;41.87;25.13;;;;;;;;;;5055395;28;20463;-90
2021/03/26 00:28:56;;;;;;;38.67;24.60;;;7.00;99.90;;;;;;5044688;28;20499;-86
2021/03/26 00:31:22;;;;;;;41.00;25.20;;;8.60;99.90;;;;;;5051199;28;20439;-88
2021/03/26 00:33:48;;;;;;;45.33;27.70;;;8.50;99.90;;;;;;5043080;28;20471;-88
2021/03/26 00:36:14;;;;;;;38.70;24.97;;;;;;;;;;5054155;28;20201;-89
2021/03/26 00:38:41;;;;;;;40.40;25.00;;;8.40;99.90;;;;;;5044623;28;20422;-90
2021/03/26 00:41:07;;;;;;;36.90;23.60;;;8.40;99.90;;;;;;5047796;28;20466;-87
2021/03/26 00:43:33;;;;;;;35.53;23.30;;;8.40;99.90;;;;;;5047804;28;20941;-87
2021/03/26 00:45:59;;;;;;;35.70;25.60;;;8.30;99.90;;;;;;5041837;28;20535;-87
2021/03/26 00:48:25;;;;;;;36.63;23.60;;;8.30;99.90;;;;;;5047331;28;20405;-89
2021/03/26 00:50:55;;;;;;;34.60;23.97;;;8.30;99.90;;;;;;5046187;28;20909;-87
2021/03/26 00:53:27;;;;;;;35.37;22.10;;;8.10;99.90;;;;;;5043455;28;20408;-87
2021/03/26 00:55:54;;;;;;;40.97;24.70;;;8.10;99.90;;;;;;5045557;28;20450;-89
2021/03/26 00:58:21;;;;;;;39.83;26.60;;;8.10;99.90;;;;;;5055616;28;20463;-90
2021/03/26 01:00:47;;;;;;;32.30;21.33;;;8.00;99.90;;;;;;5047412;28;20764;-89
2021/03/26 01:03:13;;;;;;;35.53;23.70;;;8.00;99.90;;;;;;5045022;28;20783;-90
2021/03/26 01:05:44;;;;;;;42.27;24.70;;;7.90;99.90;;;;;;5049008;28;20815;-88
2021/03/26 01:08:10;;;;;;;37.97;22.70;;;7.80;99.90;;;;;;5047187;28;20478;-88
2021/03/26 01:10:40;;;;;;;34.77;21.93;;;7.70;99.90;;;;;;5050160;28;20416;-89
2021/03/26 01:13:08;;;;;;;39.00;23.80;;;7.60;99.90;;;;;;5049137;28;20178;-91
2021/03/26 01:15:37;;;;;;;33.73;23.17;;;7.70;99.90;;;;;;5048610;28;20405;-90
2021/03/26 01:18:06;;;;;;;38.73;22.70;;;7.60;99.90;;;;;;5053735;28;20441;-88
2021/03/26 01:20:37;;;;;;;41.73;26.50;;;7.50;99.90;;;;;;5060399;28;20430;-88
2021/03/26 01:23:05;;;;;;;39.17;24.97;;;7.50;99.90;;;;;;5058237;28;20464;-87
2021/03/26 01:25:34;;;;;;;39.37;24.10;;;7.50;99.90;;;;;;5060445;28;20471;-88
2021/03/26 01:28:00;;;;;;;37.37;23.43;;;7.50;99.90;;;;;;5044981;28;20918;-89
2021/03/26 01:30:27;;;;;;;36.80;24.60;;;7.50;99.90;;;;;;5045151;28;20417;-89
2021/03/26 01:32:53;;;;;;;40.83;26.67;;;7.40;99.90;;;;;;5052285;28;20258;-90
2021/03/26 01:35:21;;;;;;;35.47;24.20;;;7.40;99.90;;;;;;5036634;28;20449;-89
2021/03/26 01:37:47;;;;;;;36.47;24.07;;;7.40;99.90;;;;;;5050221;28;20177;-89
2021/03/26 01:40:22;;;;;;;45.30;25.97;;;7.30;99.90;;;;;;5044507;28;20993;-88
2021/03/26 01:42:48;;;;;;;48.40;27.70;;;7.30;99.90;;;;;;5038359;28;20974;-89
2021/03/26 01:45:23;;;;;;;40.27;25.77;;;7.30;99.90;;;;;;5038044;28;20493;-89
2021/03/26 01:47:52;;;;;;;41.50;25.13;;;7.30;99.90;;;;;;5036985;28;20421;-88
2021/03/26 01:50:19;;;;;;;46.90;27.50;;;7.30;99.90;;;;;;5044963;28;20399;-87
2021/03/26 01:52:45;;;;;;;42.70;26.00;;;7.30;99.90;;;;;;5046103;28;20426;-89
2021/03/26 01:55:20;;;;;;;46.87;25.63;;;7.30;99.90;;;;;;5039323;28;20424;-89
2021/03/26 01:57:46;;;;;;;45.20;26.10;;;7.30;99.90;;;;;;5036511;28;20177;-89
2021/03/26 02:00:23;;;;;;;49.00;28.53;;;7.30;99.90;;;;;;5042381;28;20412;-89
2021/03/26 02:02:49;;;;;;;49.87;28.33;;;7.30;99.90;;;;;;5039542;28;20195;-88
2021/03/26 02:05:23;;;;;;;41.13;24.37;;;7.30;99.90;;;;;;5047003;28;20464;-88
2021/03/26 02:07:49;;;;;;;42.30;25.73;;;7.30;99.90;;;;;;5039848;28;20439;-88
2021/03/26 02:10:15;;;;;;;37.00;24.23;;;7.20;99.90;;;;;;5024079;28;20436;-89
2021/03/26 02:12:41;;;;;;;39.97;25.10;;;7.20;99.90;;;;;;5037500;28;20405;-89
2021/03/26 02:15:14;;;;;;;36.27;24.20;;;7.20;99.90;;;;;;5052331;28;20419;-87
2021/03/26 02:17:40;;;;;;;37.70;24.13;;;7.20;99.90;;;;;;5053427;28;20404;-87
2021/03/26 02:20:28;;;;;;;41.50;26.63;;;7.20;99.90;;;;;;5052398;28;20451;-88
2021/03/26 02:22:59;;;;;;;38.60;23.93;;;7.20;99.90;;;;;;5063215;28;20455;-88
2021/03/26 02:25:25;;;;;;;39.10;26.30;;;7.20;99.90;;;;;;5073662;28;20773;-90
2021/03/26 02:27:51;;;;;;;36.27;22.87;;;7.10;99.90;;;;;;5056260;28;20853;-89
2021/03/26 02:30:25;;;;;;;34.77;23.00;;;7.10;99.90;;;;;;5073609;28;20498;-90
2021/03/26 02:32:51;;;;;;;36.03;23.13;;;7.10;99.90;;;;;;5056122;28;20738;-88
2021/03/26 02:35:27;;;;;;;45.03;26.43;;;7.00;99.90;;;;;;5073785;28;20433;-88
2021/03/26 02:38:15;;;;;;;44.77;23.43;;;6.90;99.90;;;;;;5056291;28;20816;-89
2021/03/26 02:41:06;;;;;;;35.60;22.03;;;6.80;99.90;;;;;;5067279;28;20462;-87
2021/03/26 02:43:31;;;;;;;34.87;23.13;;;6.70;99.90;;;;;;5055672;28;20424;-87
2021/03/26 02:46:13;;;;;;;32.70;21.90;;;6.70;99.90;;;;;;5073593;28;20455;-87
2021/03/26 02:48:42;;;;;;;38.43;23.33;;;6.60;99.90;;;;;;5051701;28;20264;-89
2021/03/26 02:51:21;;;;;;;37.50;22.90;;;6.50;99.90;;;;;;5053235;28;20788;-90
2021/03/26 02:54:00;;;;;;;37.90;23.97;;;6.50;99.90;;;;;;5055397;28;20450;-89
2021/03/26 02:56:30;;;;;;;35.40;22.70;;;6.40;99.90;;;;;;5055284;28;20430;-88
2021/03/26 02:59:01;;;;;;;39.50;21.57;;;6.40;99.90;;;;;;5072705;28;20461;-87
2021/03/26 03:01:43;;;;;;;40.07;23.03;;;6.30;99.90;;;;;;5054851;28;20617;-89
2021/03/26 03:04:17;;;;;;;35.80;23.27;;;6.30;99.90;;;;;;5054097;28;20435;-89
2021/03/26 03:06:52;;;;;;;44.63;23.60;;;6.10;99.90;;;;;;5073683;28;20587;-91
2021/03/26 03:09:19;;;;;;;41.60;23.33;;;6.20;99.90;;;;;;5073781;28;20410;-89
2021/03/26 03:12:07;;;;;;;39.93;23.70;;;6.10;99.90;;;;;;5055539;28;20450;-88
2021/03/26 03:14:46;;;;;;;42.90;23.90;;;6.10;99.90;;;;;;5045442;28;20430;-89
2021/03/26 03:17:22;;;;;;;37.80;24.73;;;6.00;99.90;;;;;;5055330;28;20427;-90
2021/03/26 03:20:02;;;;;;;34.07;21.80;;;6.00;99.90;;;;;;5055420;28;20415;-89
2021/03/26 03:22:51;;;;;;;37.80;23.47;;;5.90;99.90;;;;;;5070748;28;20492;-89
2021/03/26 03:25:21;;;;;;;47.00;24.70;;;5.90;99.90;;;;;;5054958;28;20451;-90
2021/03/26 03:27:59;;;;;;;34.07;22.40;;;5.80;99.90;;;;;;5073431;28;20837;-89
2021/03/26 03:30:35;;;;;;;34.30;22.27;;;5.80;99.90;;;;;;5055572;28;20404;-89
2021/03/26 03:33:11;;;;;;;31.43;21.00;;;5.80;99.90;;;;;;5055851;28;20419;-89
2021/03/26 03:35:56;;;;;;;33.67;21.73;;;5.70;99.90;;;;;;5073507;28;20414;-89
2021/03/26 03:38:59;;;;;;;33.13;19.90;;;5.70;99.90;;;;;;5073543;28;20855;-90
2021/03/26 03:41:32;;;;;;;35.53;21.50;;;5.60;99.90;;;;;;5035416;28;20423;-89
2021/03/26 03:44:12;;;;;;;35.43;23.10;;;5.60;99.90;;;;;;5069367;28;20407;-91
2021/03/26 03:46:45;;;;;;;41.40;22.80;;;5.60;99.90;;;;;;5055677;28;20474;-90
2021/03/26 03:49:33;;;;;;;47.93;24.87;;;5.60;99.90;;;;;;5055956;28;20473;-89
2021/03/26 03:52:22;;;;;;;46.20;26.43;;;5.50;99.90;;;;;;5022385;28;20423;-90
2021/03/26 03:54:53;;;;;;;41.97;23.97;;;5.50;99.90;;;;;;5069636;28;20443;-89
2021/03/26 03:57:29;;;;;;;40.97;22.50;;;5.50;99.90;;;;;;5088982;28;20418;-90
2021/03/26 04:00:00;;;;;;;38.77;24.97;;;5.40;99.90;;;;;;5079949;28;20446;-89
2021/03/26 04:02:42;;;;;;;41.77;21.90;;;5.40;99.90;;;;;;5081246;28;20426;-90
2021/03/26 04:05:15;;;;;;;40.47;23.60;;;5.40;99.90;;;;;;5055848;28;20470;-88
2021/03/26 04:08:05;;;;;;;39.50;22.57;;;5.40;99.90;;;;;;5055991;28;20431;-88
2021/03/26 04:10:37;;;;;;;40.30;24.53;;;5.40;99.90;;;;;;5056139;28;20758;-90
2021/03/26 04:13:08;;;;;;;44.17;24.20;;;5.30;99.90;;;;;;5059617;28;20415;-90
2021/03/26 04:15:43;;;;;;;47.87;26.60;;;5.30;99.90;;;;;;5059610;28;20423;-88
2021/03/26 04:18:30;;;;;;;40.57;22.80;;;5.30;99.90;;;;;;5040159;28;20416;-88
2021/03/26 04:21:02;;;;;;;38.73;22.63;;;5.30;99.90;;;;;;5058915;28;20425;-89
2021/03/26 04:23:39;;;;;;;45.73;24.87;;;5.30;99.90;;;;;;5056745;28;20565;-89
2021/03/26 04:26:24;;;;;;;44.50;25.73;;;5.30;99.90;;;;;;5038827;28;20475;-91
2021/03/26 04:29:02;;;;;;;45.00;25.93;;;5.20;99.90;;;;;;5039176;28;20503;-89
2021/03/26 04:31:52;;;;;;;40.20;24.60;;;5.30;99.90;;;;;;5056869;28;20411;-90
2021/03/26 04:34:17;;;;;;;42.60;25.57;;;5.30;99.90;;;;;;5021917;28;20507;-88
2021/03/26 04:36:55;;;;;;;43.10;25.43;;;5.30;99.90;;;;;;5038605;28;20506;-89
2021/03/26 04:39:35;;;;;;;47.90;28.20;;;5.30;99.90;;;;;;5039222;28;20169;-90
2021/03/26 04:42:09;;;;;;;41.70;24.10;;;5.30;99.90;;;;;;5039120;28;20419;-91
2021/03/26 04:44:55;;;;;;;46.17;27.90;;;5.30;99.90;;;;;;5039155;28;20419;-90
2021/03/26 04:47:27;;;;;;;49.30;29.30;;;5.30;99.90;;;;;;5056969;28;20442;-90
2021/03/26 04:50:05;;;;;;;59.23;31.20;;;5.30;99.90;;;;;;5039001;28;20423;-91
2021/03/26 04:52:47;;;;;;;53.03;29.27;;;5.30;99.90;;;;;;5039113;28;20420;-90
2021/03/26 04:55:18;;;;;;;52.67;29.90;;;5.40;99.90;;;;;;5039491;28;20987;-90
2021/03/26 04:57:54;;;;;;;55.43;33.03;;;5.40;99.90;;;;;;5039208;28;20413;-90
2021/03/26 05:00:27;;;;;;;56.27;31.80;;;5.40;99.90;;;;;;5039004;28;20420;-91
2021/03/26 05:03:00;;;;;;;57.07;32.10;;;5.50;99.90;;;;;;5039803;28;20420;-91
2021/03/26 05:05:27;;;;;;;58.00;31.60;;;5.40;99.90;;;;;;5048218;28;20593;-89
2021/03/26 05:08:00;;;;;;;54.23;31.30;;;5.50;99.90;;;;;;5054016;28;20492;-88
2021/03/26 05:10:29;;;;;;;62.53;31.57;;;5.50;99.90;;;;;;5042574;28;20490;-88
2021/03/26 05:13:13;;;;;;;57.33;31.23;;;5.60;99.90;;;;;;5039883;28;20420;-91
2021/03/26 05:15:44;;;;;;;52.03;28.97;;;5.60;99.90;;;;;;5056747;28;20408;-91
2021/03/26 05:18:38;;;;;;;60.23;35.77;;;5.70;99.90;;;;;;5039026;28;20420;-91
2021/03/26 05:21:19;;;;;;;57.00;32.17;;;5.80;99.90;;;;;;5029256;28;20673;-91
2021/03/26 05:24:01;;;;;;;64.80;33.33;;;5.80;99.90;;;;;;5037507;28;20477;-90
2021/03/26 05:26:27;;;;;;;60.17;31.87;;;5.90;99.90;;;;;;5038149;28;20872;-90
2021/03/26 05:28:53;;;;;;;54.70;30.30;;;5.90;99.90;;;;;;5058701;28;20411;-90
2021/03/26 05:31:29;;;;;;;68.20;34.53;;;6.00;99.90;;;;;;5062141;28;20456;-89
2021/03/26 05:34:02;;;;;;;56.33;33.30;;;6.00;99.90;;;;;;5061614;28;20475;-90
2021/03/26 05:36:36;;;;;;;57.13;31.60;;;6.00;99.90;;;;;;5044450;28;20420;-90
2021/03/26 05:39:07;;;;;;;53.73;30.47;;;6.10;99.90;;;;;;5052898;28;20481;-89
2021/03/26 05:41:39;;;;;;;58.33;31.37;;;6.10;99.90;;;;;;5059218;28;20426;-90
2021/03/26 05:44:23;;;;;;;56.63;31.83;;;6.00;99.90;;;;;;5057584;28;20415;-89
2021/03/26 05:47:14;;;;;;;52.40;32.40;;;6.10;99.90;;;;;;5043719;28;20967;-91
2021/03/26 05:50:16;;;;;;;68.60;35.80;;;6.20;99.90;;;;;;5049279;28;20565;-91
2021/03/26 05:52:47;;;;;;;55.37;31.73;;;6.30;99.90;;;;;;5046270;28;20757;-89
2021/03/26 05:55:34;;;;;;;60.13;32.40;;;6.40;99.90;;;;;;5042934;28;20416;-90
2021/03/26 05:58:24;;;;;;;59.43;31.50;;;6.40;99.90;;;;;;5046564;28;20448;-89
2021/03/26 06:00:58;;;;;;;56.70;32.37;;;6.50;99.90;;;;;;5050528;28;20419;-89
2021/03/26 06:03:57;;;;;;;52.80;30.77;;;6.50;99.90;;;;;;5050405;28;20988;-91
2021/03/26 06:06:48;;;;;;;53.97;30.97;;;6.60;99.90;;;;;;5069883;28;20433;-89
2021/03/26 06:09:31;;;;;;;54.83;32.97;;;6.60;99.90;;;;;;5071074;28;20426;-90
2021/03/26 06:12:21;;;;;;;52.57;30.80;;;6.70;99.90;;;;;;5046354;28;20432;-88
2021/03/26 06:15:05;;;;;;;53.07;32.37;;;6.70;99.90;;;;;;5049034;28;20408;-90
2021/03/26 06:18:12;;;;;;;50.47;29.70;;;6.80;99.90;;;;;;5064143;28;20858;-89
2021/03/26 06:20:54;;;;;;;55.83;29.50;;;6.90;99.90;;;;;;4987170;28;20404;-91
2021/03/26 06:23:53;;;;;;;55.17;29.90;;;7.00;99.90;;;;;;5059588;28;20475;-90
2021/03/26 06:26:50;;;;;;;51.13;29.80;;;7.10;99.90;;;;;;5056830;28;20420;-88
2021/03/26 06:29:53;;;;;;;48.60;29.70;;;7.20;99.90;;;;;;5062203;28;20408;-89
2021/03/26 06:33:01;;;;;;;43.93;26.13;;;7.40;99.90;;;;;;5063283;28;20858;-88
2021/03/26 06:35:55;;;;;;;54.73;29.30;;;7.40;99.90;;;;;;5034531;28;20493;-89
2021/03/26 06:38:36;;;;;;;45.80;29.53;;;7.70;99.90;;;;;;5058456;28;20424;-90
2021/03/26 06:41:34;;;;;;;42.77;26.73;;;8.20;99.90;;;;;;5075227;28;20421;-89
2021/03/26 06:44:43;;;;;;;41.70;26.37;;;8.80;99.90;;;;;;5075351;28;20411;-89
2021/03/26 06:47:47;;;;;;;36.90;25.43;;;9.50;99.90;;;;;;5063938;28;20932;-88
2021/03/26 06:50:32;;;;;;;34.63;22.90;;;10.40;99.90;;;;;;5080676;28;20458;-93
2021/03/26 06:53:27;;;;;;;36.47;23.93;;;11.20;99.90;;;;;;5058377;28;20417;-92
2021/03/26 06:56:22;;;;;;;36.27;23.70;;;11.80;99.90;;;;;;5058159;28;20474;-92
2021/03/26 06:58:50;;;;;;;35.17;23.93;;;12.30;99.90;;;;;;5075998;28;20411;-94
2021/03/26 07:01:39;;;;;;;34.10;21.20;;;12.60;99.90;;;;;;5057961;28;21043;-93
2021/03/26 07:04:08;;;;;;;32.07;23.10;;;13.10;99.90;;;;;;5075769;28;20448;-93
2021/03/26 07:06:46;;;;;;;29.73;21.13;;;13.30;99.90;;;;;;5076282;28;20921;-91
2021/03/26 07:09:36;;;;;;;28.17;22.57;;;13.70;99.90;;;;;;5058637;28;20527;-92
2021/03/26 07:12:32;;;;;;;32.40;23.30;;;14.40;99.90;;;;;;5060876;28;20824;-93
2021/03/26 07:14:58;;;;;;;31.17;21.87;;;15.10;99.90;;;;;;5059925;28;20836;-94
2021/03/26 07:17:47;;;;;;;29.77;21.33;;;15.80;99.90;;;;;;5061479;28;20429;-92
2021/03/26 07:20:22;;;;;;;32.63;22.20;;;16.40;99.50;;;;;;5059322;28;20268;-89
2021/03/26 07:23:25;;;;;;;32.93;25.13;;;16.90;98.00;;;;;;5058180;28;20442;-92
2021/03/26 07:26:42;;;;;;;29.23;22.50;;;17.60;95.50;;;;;;5057101;28;20523;-91
2021/03/26 07:29:42;;;;;;;30.17;23.83;;;17.70;93.80;;;;;;5013920;28;20414;-91
2021/03/26 07:32:22;;;;;;;28.97;23.07;;;17.90;93.70;;;;;;5058308;28;20505;-92
2021/03/26 07:35:24;;;;;;;28.50;22.63;;;18.30;93.00;;;;;;5075498;28;20405;-94
2021/03/26 07:38:27;;;;;;;30.03;21.90;;;18.80;92.30;;;;;;5058137;28;20955;-93
2021/03/26 07:41:53;;;;;;;30.57;24.30;;;19.60;91.30;;;;;;5056171;28;20427;-88
2021/03/26 07:44:31;;;;;;;30.30;22.40;;;20.30;87.00;;;;;;5013680;28;20430;-89
2021/03/26 07:47:43;;;;;;;27.63;24.23;;;20.80;83.30;;;;;;5060505;28;20452;-92
2021/03/26 07:50:29;;;;;;;29.37;24.90;;;21.00;81.20;;;;;;5031204;28;20419;-90
2021/03/26 07:53:17;;;;;;;36.30;26.33;;;21.00;81.00;;;;;;5062834;28;20926;-90
2021/03/26 07:56:23;;;;;;;28.17;24.77;;;21.40;81.30;;;;;;5062793;28;20788;-90
2021/03/26 07:59:20;;;;;;;31.60;25.70;;;22.10;77.80;;;;;;5078484;28;20410;-91
2021/03/26 08:02:07;;;;;;;25.90;22.73;;;21.40;78.70;;;;;;5029106;28;20418;-90
2021/03/26 08:04:54;;;;;;;33.70;26.20;;;21.70;77.30;;;;;;5062912;28;20505;-88
2021/03/26 08:07:59;;;;;;;29.47;26.10;;;21.20;78.80;;;;;;5062911;28;20433;-92
2021/03/26 08:10:48;;;;;;;30.10;24.27;;;22.00;79.90;;;;;;5062675;28;20427;-89
2021/03/26 08:13:37;;;;;;;29.10;24.90;;;23.70;99.90;;;;;;5063275;28;20417;-91
2021/03/26 08:16:17;;;;;;;31.43;24.27;;;24.30;98.10;;;;;;5062902;28;21045;-91
2021/03/26 08:19:10;;;;;;;26.73;23.93;;;24.50;91.80;;;;;;5062575;28;21037;-89
2021/03/26 08:21:48;;;;;;;30.50;24.83;;;24.90;90.00;;;;;;5061543;28;20516;-87
2021/03/26 08:24:51;;;;;;;26.37;23.33;;;23.60;90.60;;;;;;5080504;28;20412;-89
2021/03/26 08:27:19;;;;;;;28.27;24.63;;;22.80;93.10;;;;;;5041763;28;20837;-89
2021/03/26 08:30:19;;;;;;;27.37;24.40;;;22.80;92.60;;;;;;5042765;28;20506;-91
2021/03/26 08:33:10;;;;;;;26.50;23.70;;;;;;;;;;5043447;28;20422;-90
2021/03/26 08:35:47;;;;;;;25.20;22.40;;;;;;;;;;5043675;28;20564;-90
2021/03/26 08:38:27;;;;;;;25.10;21.80;;;;;;;;;;5042731;28;20430;-91
2021/03/26 08:40:56;;;;;;;26.00;22.73;;;;;;;;;;5062067;28;20955;-92
2021/03/26 08:43:23;;;;;;;25.43;22.73;;;;;;;;;;5046061;28;20487;-90
2021/03/26 08:45:52;;;;;;;26.10;23.30;;;;;;;;;;5049191;28;20495;-90
2021/03/26 08:48:37;;;;;;;29.00;24.03;;;;;;;;;;5047428;28;20423;-89
2021/03/26 08:51:29;;;;;;;26.27;23.50;;;;;;;;;;5042307;28;20507;-91
2021/03/26 08:53:58;;;;;;;26.40;23.57;;;;;;;;;;5021916;28;20423;-91
2021/03/26 08:56:48;;;;;;;27.03;24.23;;;;;;;;;;5044260;28;20418;-91
2021/03/26 08:59:23;;;;;;;24.13;21.10;;;;;;;;;;5045749;28;20413;-92
2021/03/26 09:02:08;;;;;;;27.63;20.57;;;;;;;;;;5047650;28;20418;-90
2021/03/26 09:04:37;;;;;;;23.10;19.17;;;;;;;;;;5053304;28;20992;-91
2021/03/26 09:07:09;;;;;;;26.60;18.80;;;;;;;;;;5055974;28;20497;-90
2021/03/26 09:09:43;;;;;;;22.13;18.57;;;;;;;;;;5058328;28;20422;-90
2021/03/26 09:12:28;;;;;;;19.70;17.30;;;;;;;;;;5071687;28;20457;-91
2021/03/26 09:15:28;;;;;;;21.17;18.40;;;25.10;51.20;;;;;;5044305;28;20481;-91
2021/03/26 09:18:05;;;;;;;20.77;18.63;;;25.20;53.00;;;;;;5041789;28;20426;-92
2021/03/26 09:20:42;;;;;;;21.17;18.03;;;;;;;;;;5058920;28;20581;-93
2021/03/26 09:23:45;;;;;;;20.80;18.13;;;25.70;51.10;;;;;;5041481;28;20469;-91
2021/03/26 09:26:11;;;;;;;19.97;17.27;;;;;;;;;;5040922;28;20568;-93
2021/03/26 09:28:54;;;;;;;18.17;16.27;;;27.50;46.00;;;;;;5040028;28;20408;-92
2021/03/26 09:31:46;;;;;;;19.67;17.63;;;27.60;46.00;;;;;;5040565;28;20415;-91
2021/03/26 09:34:23;;;;;;;19.47;16.63;;;;;;;;;;5039609;28;20424;-91
2021/03/26 09:36:56;;;;;;;19.20;16.80;;;;;;;;;;5040022;28;20411;-92
2021/03/26 09:39:25;;;;;;;21.07;17.97;;;;;;;;;;5039976;28;20420;-93
2021/03/26 09:42:05;;;;;;;21.40;17.47;;;26.30;46.40;;;;;;5039323;28;20416;-90
2021/03/26 09:44:43;;;;;;;18.03;16.00;;;26.80;46.30;;;;;;5057014;28;20392;-91
2021/03/26 09:47:16;;;;;;;18.17;16.27;;;;;;;;;;5040124;28;20887;-93
2021/03/26 09:49:51;;;;;;;19.67;15.60;;;;;;;;;;5039553;28;20511;-91
2021/03/26 09:52:21;;;;;;;15.43;12.60;;;;;;;;;;5041162;28;20424;-92
2021/03/26 09:54:52;;;;;;;13.93;12.53;;;;;;;;;;5040415;28;20916;-93
2021/03/26 09:57:36;;;;;;;13.00;10.83;;;;;;;;;;5040427;28;20427;-91
2021/03/26 10:00:20;;;;;;;11.63;10.33;;;;;;;;;;5039429;28;20427;-91
2021/03/26 10:02:57;;;;;;;13.63;12.40;;;;;;;;;;5039255;28;20453;-92
2021/03/26 10:05:32;;;;;;;12.30;10.97;;;;;;;;;;5039225;28;20861;-91
2021/03/26 10:08:20;;;;;;;14.13;11.67;;;;;;;;;;5058345;28;20845;-92
2021/03/26 10:10:49;;;;;;;13.57;11.23;;;;;;;;;;5057791;28;20395;-90
2021/03/26 10:13:21;;;;;;;11.90;10.23;;;;;;;;;;5039135;28;20419;-92
2021/03/26 10:15:58;;;;;;;13.80;11.00;;;;;;;;;;5042319;28;20548;-93
2021/03/26 10:18:25;;;;;;;12.63;11.33;;;;;;;;;;5039589;28;20416;-93
2021/03/26 10:20:53;;;;;;;11.53;10.30;;;27.00;85.60;;;;;;5041565;28;20423;-92
2021/03/26 10:24:01;;;;;;;11.80;10.70;;;27.90;60.10;;;;;;5042246;28;20469;-92
2021/03/26 10:26:30;;;;;;;11.67;10.57;;;29.00;55.20;;;;;;5005733;28;21146;-92
2021/03/26 10:29:19;;;;;;;12.50;11.20;;;29.90;35.40;;;;;;5037756;28;20421;-92
2021/03/26 10:31:46;;;;;;;13.80;10.40;;;29.10;35.30;;;;;;5038401;28;20775;-92
2021/03/26 10:34:16;;;;;;;11.67;10.47;;;28.30;36.40;;;;;;5052841;28;20412;-91
2021/03/26 10:37:03;;;;;;;12.27;10.67;;;29.10;35.70;;;;;;5057837;28;20424;-91
2021/03/26 10:39:51;;;;;;;13.17;11.53;;;29.40;35.30;;;;;;5056748;28;20411;-91
2021/03/26 10:42:46;;;;;;;10.47;9.07;;;28.50;34.90;;;;;;5064150;28;20453;-90
2021/03/26 10:45:25;;;;;;;10.57;8.40;;;28.10;35.70;;;;;;5062013;28;20452;-90
2021/03/26 10:48:03;;;;;;;9.07;8.20;;;28.20;34.20;;;;;;5054727;28;20802;-89
2021/03/26 10:51:08;;;;;;;10.30;8.40;;;28.10;34.20;;;;;;5054427;28;20420;-92
2021/03/26 10:53:41;;;;;;;10.30;8.00;;;28.20;34.70;;;;;;5054126;28;20397;-92
2021/03/26 10:56:12;;;;;;;9.17;7.73;;;28.00;33.90;;;;;;5054158;28;20474;-90
2021/03/26 10:58:43;;;;;;;8.53;7.63;;;28.40;33.10;;;;;;5053597;28;20416;-94
2021/03/26 11:01:11;;;;;;;14.50;9.90;;;27.90;34.10;;;;;;5054319;28;20454;-92
2021/03/26 11:03:46;;;;;;;11.60;9.10;;;28.10;34.10;;;;;;5052046;28;20519;-89
2021/03/26 11:06:31;;;;;;;12.67;8.70;;;27.40;34.00;;;;;;5053396;28;20467;-91
2021/03/26 11:09:04;;;;;;;9.53;7.30;;;28.20;35.20;;;;;;5052756;28;20404;-88
2021/03/26 11:12:14;;;;;;;8.83;7.90;;;28.90;33.20;;;;;;5054069;28;20404;-92
2021/03/26 11:15:07;;;;;;;8.57;7.77;;;29.70;32.60;;;;;;5041362;28;20416;-90
2021/03/26 11:18:11;;;;;;;8.10;6.47;;;30.50;31.00;;;;;;5051152;28;20456;-91
2021/03/26 11:20:58;;;;;;;9.10;7.10;;;30.50;35.70;;;;;;5049594;28;20420;-88
2021/03/26 11:23:29;;;;;;;7.60;6.90;;;;;;;;;;5065629;28;20489;-89
2021/03/26 11:26:03;;;;;;;10.90;7.93;;;29.30;68.00;;;;;;5074413;28;20484;-88
2021/03/26 11:28:38;;;;;;;12.63;8.00;;;29.40;60.60;;;;;;5073332;28;20413;-90
2021/03/26 11:31:16;;;;;;;8.20;7.33;;;29.40;57.80;;;;;;5073383;28;20499;-88
2021/03/26 11:33:46;;;;;;;11.47;8.87;;;29.00;60.70;;;;;;5072077;28;20411;-89
2021/03/26 11:36:32;;;;;;;9.47;7.67;;;;;;;;;;5077447;28;20533;-90
2021/03/26 11:39:04;;;;;;;8.50;7.30;;;;;;;;;;5075685;28;20758;-88
2021/03/26 11:41:41;;;;;;;9.50;7.93;;;26.40;74.70;;;;;;5075751;28;20406;-90
2021/03/26 11:44:12;;;;;;;15.00;8.80;;;26.10;42.30;;;;;;5072224;28;20858;-87
2021/03/26 11:46:41;;;;;;;10.93;7.80;;;25.90;34.50;;;;;;5073252;28;20473;-89
2021/03/26 11:49:19;;;;;;;9.87;8.73;;;25.40;35.00;;;;;;5073680;28;20502;-89
2021/03/26 11:52:04;;;;;;;11.00;8.43;;;25.10;36.80;;;;;;5074551;28;20457;-89
2021/03/26 11:55:02;;;;;;;10.50;6.93;;;24.80;36.60;;;;;;5073561;28;20421;-90
2021/03/26 11:58:08;;;;;;;10.60;8.00;;;24.60;35.90;;;;;;5074975;28;20418;-88
2021/03/26 12:00:37;;;;;;;9.33;7.03;;;24.60;37.20;;;;;;5073817;28;20429;-89
2021/03/26 12:03:37;;;;;;;9.33;7.37;;;24.60;37.90;;;;;;5088964;28;20447;-88
2021/03/26 12:06:12;;;;;;;12.13;8.17;;;25.00;37.40;;;;;;5091400;28;20461;-90
2021/03/26 12:08:46;;;;;;;10.90;8.27;;;25.50;35.40;;;;;;5091735;28;20425;-90
2021/03/26 12:11:23;;;;;;;9.57;8.33;;;25.80;35.90;;;;;;5091682;28;20449;-89
2021/03/26 12:14:06;;;;;;;7.77;6.90;;;26.40;36.00;;;;;;5075835;28;20415;-90
2021/03/26 12:16:38;;;;;;;9.00;7.20;;;26.80;33.20;;;;;;5074718;28;20480;-90
2021/03/26 12:19:17;;;;;;;7.80;6.50;;;26.50;33.10;;;;;;5073521;28;20411;-89
2021/03/26 12:22:03;;;;;;;7.87;6.60;;;26.60;33.80;;;;;;5063099;28;21026;-87
2021/03/26 12:24:49;;;;;;;8.20;7.40;;;26.90;33.60;;;;;;5061883;28;20428;-90
2021/03/26 12:27:18;;;;;;;8.20;7.40;;;27.70;34.10;;;;;;5046005;28;20500;-89
2021/03/26 12:30:21;;;;;;;8.30;7.00;;;28.10;33.00;;;;;;5061492;28;20512;-89
2021/03/26 12:33:08;;;;;;;9.20;8.13;;;28.40;32.40;;;;;;5047003;28;20499;-89
2021/03/26 12:35:34;;;;;;;10.83;9.77;;;;;;;;;;5044062;28;20412;-88
2021/03/26 12:38:20;;;;;;;9.37;8.17;;;27.60;46.70;;;;;;5064450;28;20766;-87
2021/03/26 12:40:57;;;;;;;12.13;10.93;;;26.70;32.40;;;;;;5046231;28;20419;-90
2021/03/26 12:43:26;;;;;;;10.17;9.17;;;24.80;34.70;;;;;;5069572;28;20444;-89
2021/03/26 12:45:58;;;;;;;11.17;8.93;;;24.50;36.20;;;;;;5051926;28;20467;-89
2021/03/26 12:48:51;;;;;;;11.40;10.10;;;24.90;36.70;;;;;;5049426;28;20420;-90
2021/03/26 12:51:51;;;;;;;13.00;10.17;;;24.50;36.00;;;;;;5064880;28;20414;-89
2021/03/26 12:54:36;;;;;;;12.20;9.60;;;23.90;36.70;;;;;;5064754;28;20408;-90
2021/03/26 12:57:16;;;;;;;11.27;10.10;;;23.10;37.50;;;;;;5063671;28;20414;-89
2021/03/26 12:59:47;;;;;;;12.37;11.17;;;22.20;38.70;;;;;;5065617;28;20424;-89
2021/03/26 13:02:29;;;;;;;11.30;10.20;;;22.20;40.20;;;;;;5061790;28;20409;-90
2021/03/26 13:05:11;;;;;;;11.07;9.93;;;23.10;40.30;;;;;;5039188;28;20421;-87
2021/03/26 13:08:13;;;;;;;11.83;10.63;;;24.20;39.30;;;;;;5046094;28;20517;-90
2021/03/26 13:10:51;;;;;;;13.00;10.87;;;24.10;38.50;;;;;;5060162;28;20418;-89
2021/03/26 13:13:44;;;;;;;13.63;12.23;;;24.40;38.60;;;;;;5063601;28;20409;-89
2021/03/26 13:16:33;;;;;;;13.50;11.90;;;24.80;38.30;;;;;;5074577;28;20411;-89
2021/03/26 13:18:59;;;;;;;15.20;12.50;;;25.50;38.40;;;;;;5072017;28;20413;-88
2021/03/26 13:21:41;;;;;;;13.70;12.30;;;25.40;36.50;;;;;;5073703;28;20418;-90
2021/03/26 13:24:29;;;;;;;13.40;12.10;;;25.70;38.10;;;;;;5073956;28;20453;-89
2021/03/26 13:27:20;;;;;;;14.97;13.47;;;25.90;36.50;;;;;;5072364;28;20473;-89
2021/03/26 13:30:06;;;;;;;13.90;12.60;;;25.30;37.10;;;;;;5074575;28;20415;-89
2021/03/26 13:32:46;;;;;;;15.13;13.63;;;24.80;37.40;;;;;;5059594;28;20417;-88
2021/03/26 13:35:22;;;;;;;14.80;12.37;;;24.30;37.90;;;;;;5071345;28;20445;-88
2021/03/26 13:38:15;;;;;;;13.67;12.37;;;23.70;39.20;;;;;;5073642;28;20415;-87
2021/03/26 13:40:44;;;;;;;14.07;11.67;;;23.90;40.30;;;;;;5067303;28;20423;-88
2021/03/26 13:43:17;;;;;;;13.77;10.93;;;23.80;38.90;;;;;;5073246;28;20458;-88
2021/03/26 13:46:03;;;;;;;14.07;11.07;;;24.00;39.60;;;;;;5055770;28;21043;-88
2021/03/26 13:48:41;;;;;;;13.87;11.90;;;23.30;38.50;;;;;;5057350;28;20414;-87
2021/03/26 13:51:08;;;;;;;11.73;10.37;;;22.90;39.40;;;;;;5071329;28;20410;-88